Виджеты


Виджет Фактической Погоды в аэропортах

Название города
Авиационная погода в Сочи
Время Температура (tC) Точка росы (tC) Направление ветра Скорость ветра (узлы) Условия полета
2021-07-25T20:30:00Z 23.0 21.0 50 6 VFR
Copy and paste this code to your website.

Виджет фактической погоды METAR

Название города
Погода METAR
Авиационная погода в Сочи URSS 252030Z 05003MPS 9999 BKN083 23/21 Q1013 R02/010070 R06/010070 NOSIG RMK R06/08002MPS QFE758
Copy and paste this code to your website.